METAR Data
IDs: Format: Raw Decoded Include TAF

Data at: 0314 UTC 25 Feb 2021

LKKB 250300Z 22002KT 0100 R24/0350N FZFG VV001 M00/M01 Q1031